Central Sonoma County Latest

29 Stations

15 Minute Data | America/Los_Angeles
as of 10/23/21 2:04 AM PDT
Station Date Time Temp (°F) RH (%) Dew Pt (°F) Wind Spd (mph) Wind Dir (°) Wind Gust (mph) Latest Rain (In) Daily Rain (In) Daily Min Temp (°F) Daily Max Temp (°F)
Healdsburg-South (Sodini) 10/23/21 0200 52.2   7.8 96   2 51.2   8.2 0.0 N | 0 0.0   10.5 0.00 0.00 51.9   7.8 53.3   7.2
Windsor-NW (Ranch 8) 10/23/21 0200 52.5   8.2 86   2 48.4   7.3 0.0 N | 0 0.0   13.0 0.00 0.00 52.3   8.3 52.9   8.2
Windsor-East (Ranch 16) 10/23/21 0200 51.7   8.4 97   0 50.8   8.6 0.0 N | 0 0.0   10.9 0.00 0.00 51.5   8.6 53.3   7.4
Mark West-North (Ranch 14) 10/23/21 0200 51.6   8.3 96   2 50.6   8.7 0.0 N | 0 0.0   8.6 0.00 0.00 51.5   8.3 53.5   6.9
Windsor-SE (Silk Rd) 10/23/21 0200 50.6   9.7 99   0 50.3   9.6 0.0 SE | 127 0.9   8.1 0.00 0.00 50.4   9.9 52.4   8.4
Fulton-NW (Ranch 5) 10/23/21 0200 52.0   8.1 99   0 51.7   8.2 0.3 WSW | 248 1.4   10.6 0.00 0.00 51.8   8.2 53.4   7.4
Windsor-South (Laughlin Rd) 10/23/21 0200 52.2   7.8 - - - - - 0.00 0.00 51.9   8.0 52.9   7.7
Fulton-SE (Barnes Rd) 10/23/21 0200 52.1   8.0 95   2 50.8   8.4 0.1 NNE | 16 1.0   13.6 0.00 0.00 51.9   8.1 54.0   7.1
Fulton-SW (Ranch 21) 10/23/21 0200 51.5   8.3 97   1 50.8   8.5 0.4 NNW | 342 1.5   11.9 0.00 0.00 51.5   8.3 53.0   7.6
Santa Rosa-NW (Goldfields) 10/23/21 0200 52.6   7.4 100   0 52.6   7.5 0.4 N | 353 1.3   9.8 0.00 0.00 52.2   7.7 53.5   7.4
NW Santa Rosa (Piner Road) 10/23/21 0200 50.9   9.4 98   0 50.3   9.3 0.0 N | 0 0.0   8.4 0.00 0.00 50.8   9.4 52.8   8.4
River Rd South (Denner Ranch) 10/23/21 0200 51.6   8.6 100   0 51.6   8.6 1.6 NW | 304 2.4   12.7 0.00 0.00 51.3   8.7 52.3   8.5
West Santa Rosa (Hawk's Roost) 10/23/21 0200 51.4   8.8 98   0 50.9   8.9 0.0 N | 0 0.0   6.8 0.00 0.00 51.3   8.9 52.6   8.1
Guerneville Rd (Prokopakis) 10/23/21 0200 51.2   9.3 99   0 50.8   9.4 - - - 0.00 0.00 51.0   9.4 52.4   8.6
Guerneville Rd West (Balletto) 10/23/21 0200 51.6   8.9 98   0 50.9   8.9 0.6 WNW | 299 1.7   9.8 0.00 0.00 51.4   9.0 52.8   8.3
Guerneville Rd East (Rich Ranch) 10/23/21 0200 51.9   8.2 98   0 51.5   8.2 - - - - - 51.6   8.4 53.3   7.6
Occidental Rd (Sebastopol) 10/23/21 0200 51.6   8.0 100   0 51.6   8.0 0.7 WNW | 291 2.2   12.9 0.00 0.00 51.2   7.9 53.0   7.6
Lower Westside Rd (Ranch 12) 10/23/21 0200 51.1   9.2 97   0 50.4   9.3 0.1 W | 272 1.1   6.3 0.00 0.00 50.9   9.4 51.8   9.1
Guerneville (Laughlin Rd) 10/23/21 0200 52.0   8.3 98   3 51.6   7.3 0.6 W | 264 1.7   6.8 0.00 0.00 51.9   8.4 52.3   8.6
Korbel (Winery) 10/23/21 0200 52.8   7.8 98   2 52.3   7.1 0.6 N | 351 1.5   6.2 0.00 0.00 52.7   7.7 53.2   7.6
Forestville (Shone Farms) 10/23/21 0200 51.9   8.6 96   0 50.9   8.6 0.4 SW | 233 1.9   8.9 0.00 0.00 50.6   8.0 53.3   8.3
Forestville-NE (Ranch 30) 10/23/21 0200 51.4   8.7 98   0 50.9   8.6 0.2 WSW | 254 0.9   11.6 0.00 0.00 51.3   8.6 51.6   8.6
Green Valley Vineyard 10/23/21 0200 51.0   8.9 98   1 50.4   8.5 0.3 WSW | 248 1.8   15.3 0.00 0.00 50.7   8.9 51.9   8.3
Graton-West (Dutton Ranch) 10/23/21 0200 51.2   9.5 100   0 51.2   9.5 0.1 SSW | 198 1.2   13.0 0.00 0.00 50.8   9.7 52.0   8.9
Graton-South (Mill Station Rd) 10/23/21 0200 51.3   9.0 98   1 50.6   8.7 0.2 NW | 304 1.1   10.9 0.00 0.00 50.4   9.6 51.6   9.1
Occidental (Horseshoe Bend) 10/23/21 0200 50.5   7.4 99   1 50.3   7.6 - - - - - 50.2   7.6 51.6   6.7
Sexton Valley (Jacqueline's Blk) 10/23/21 0200 51.3   9.1 98   1 50.7   8.8 0.2 WNW | 293 1.1   4.0 0.00 0.00 50.9   9.4 51.5   9.1
Sebastopol Hills (Burnside Rd) 10/23/21 0200 52.3   7.1 100   1 52.2   6.8 1.5 W | 264 3.4   12.4 0.00 0.00 52.1   7.1 52.7   6.9
Seaview/Fort Ross (Hirsch) 10/23/21 0200 49.3   4.8 97   0 48.5   4.8 0.1 S | 188 0.9   13.9 0.00 0.00 49.0   5.0 49.4   5.1
Max     52.8 100 52.6 1.6 - 3.4 0.00 0.00 52.7 54.0
Avg     51.6 98 50.9 0.3 - 1.2 0.00 - - -
Min     49.3 86 48.4 0.0 - 0.0 0.00 0.00 49.0 49.4